sensor_id;sensor_type;location;lat;lon;timestamp;P1;durP1;ratioP1;P2;durP2;ratioP2
22308;SDS011;11322;50.858;-1.778;2022-12-18T00:00:35;1.85;;;1.7;;
22308;SDS011;11322;50.858;-1.778;2022-12-18T00:05:34;5.9;;;3.75;;
22308;SDS011;11322;50.858;-1.778;2022-12-18T00:10:34;2.8;;;2.55;;
22308;SDS011;11322;50.858;-1.778;2022-12-18T00:15:34;2.25;;;1.7;;
22308;SDS011;11322;50.858;-1.778;2022-12-18T00:20:35;1.85;;;1.4;;
22308;SDS011;11322;50.858;-1.778;2022-12-18T00:25:34;3.65;;;3.05;;
22308;SDS011;11322;50.858;-1.778;2022-12-18T00:30:34;6.9;;;2.2;;
22308;SDS011;11322;50.858;-1.778;2022-12-18T00:35:34;2.45;;;2.25;;
22308;SDS011;11322;50.858;-1.778;2022-12-18T00:40:34;2.65;;;2.4;;
22308;SDS011;11322;50.858;-1.778;2022-12-18T00:45:34;2.6;;;2.0;;
22308;SDS011;11322;50.858;-1.778;2022-12-18T00:50:34;5.05;;;3.3;;
22308;SDS011;11322;50.858;-1.778;2022-12-18T00:55:34;11.6;;;2.3;;
22308;SDS011;11322;50.858;-1.778;2022-12-18T01:00:34;1.8;;;1.45;;
22308;SDS011;11322;50.858;-1.778;2022-12-18T01:05:34;1.95;;;1.75;;
22308;SDS011;11322;50.858;-1.778;2022-12-18T01:10:34;1.45;;;1.35;;
22308;SDS011;11322;50.858;-1.778;2022-12-18T01:15:34;3.6;;;2.9;;
22308;SDS011;11322;50.858;-1.778;2022-12-18T01:20:34;2.85;;;2.55;;
22308;SDS011;11322;50.858;-1.778;2022-12-18T01:25:35;2.35;;;2.15;;
22308;SDS011;11322;50.858;-1.778;2022-12-18T01:30:34;2.35;;;1.9;;
22308;SDS011;11322;50.858;-1.778;2022-12-18T01:35:39;2.0;;;1.9;;
22308;SDS011;11322;50.858;-1.778;2022-12-18T01:40:34;2.2;;;1.95;;
22308;SDS011;11322;50.858;-1.778;2022-12-18T01:45:34;3.25;;;2.85;;
22308;SDS011;11322;50.858;-1.778;2022-12-18T01:50:35;3.85;;;1.45;;
22308;SDS011;11322;50.858;-1.778;2022-12-18T01:55:36;6.45;;;1.7;;
22308;SDS011;11322;50.858;-1.778;2022-12-18T02:00:34;2.1;;;2.0;;
22308;SDS011;11322;50.858;-1.778;2022-12-18T02:05:37;4.55;;;2.0;;
22308;SDS011;11322;50.858;-1.778;2022-12-18T02:10:35;2.6;;;2.4;;
22308;SDS011;11322;50.858;-1.778;2022-12-18T02:15:36;1.1;;;1.1;;
22308;SDS011;11322;50.858;-1.778;2022-12-18T02:20:35;9.2;;;1.65;;
22308;SDS011;11322;50.858;-1.778;2022-12-18T02:25:39;2.1;;;1.85;;
22308;SDS011;11322;50.858;-1.778;2022-12-18T02:30:34;3.9;;;2.9;;
22308;SDS011;11322;50.858;-1.778;2022-12-18T02:35:34;2.55;;;2.1;;
22308;SDS011;11322;50.858;-1.778;2022-12-18T02:40:34;2.3;;;2.2;;
22308;SDS011;11322;50.858;-1.778;2022-12-18T02:45:34;5.05;;;1.5;;
22308;SDS011;11322;50.858;-1.778;2022-12-18T02:50:35;4.45;;;1.8;;
22308;SDS011;11322;50.858;-1.778;2022-12-18T02:55:39;3.8;;;3.5;;
22308;SDS011;11322;50.858;-1.778;2022-12-18T03:00:35;5.2;;;1.95;;
22308;SDS011;11322;50.858;-1.778;2022-12-18T03:05:35;4.05;;;3.25;;
22308;SDS011;11322;50.858;-1.778;2022-12-18T03:10:49;4.6;;;1.45;;
22308;SDS011;11322;50.858;-1.778;2022-12-18T03:15:34;3.45;;;1.55;;
22308;SDS011;11322;50.858;-1.778;2022-12-18T03:20:34;8.45;;;4.05;;
22308;SDS011;11322;50.858;-1.778;2022-12-18T03:25:34;3.8;;;3.5;;
22308;SDS011;11322;50.858;-1.778;2022-12-18T03:30:34;2.35;;;2.15;;
22308;SDS011;11322;50.858;-1.778;2022-12-18T03:35:35;3.15;;;2.8;;
22308;SDS011;11322;50.858;-1.778;2022-12-18T03:40:35;2.75;;;2.6;;
22308;SDS011;11322;50.858;-1.778;2022-12-18T03:45:34;5.95;;;2.55;;
22308;SDS011;11322;50.858;-1.778;2022-12-18T03:50:36;7.75;;;4.1;;
22308;SDS011;11322;50.858;-1.778;2022-12-18T03:55:34;3.0;;;2.75;;
22308;SDS011;11322;50.858;-1.778;2022-12-18T04:00:34;2.25;;;2.15;;
22308;SDS011;11322;50.858;-1.778;2022-12-18T04:05:34;2.8;;;2.15;;
22308;SDS011;11322;50.858;-1.778;2022-12-18T04:10:35;4.75;;;4.15;;
22308;SDS011;11322;50.858;-1.778;2022-12-18T04:15:34;5.55;;;3.9;;
22308;SDS011;11322;50.858;-1.778;2022-12-18T04:20:34;4.7;;;3.8;;
22308;SDS011;11322;50.858;-1.778;2022-12-18T04:25:34;3.0;;;2.75;;
22308;SDS011;11322;50.858;-1.778;2022-12-18T04:30:34;10.7;;;6.15;;
22308;SDS011;11322;50.858;-1.778;2022-12-18T04:35:34;10.65;;;7.4;;
22308;SDS011;11322;50.858;-1.778;2022-12-18T04:40:34;10.2;;;3.7;;
22308;SDS011;11322;50.858;-1.778;2022-12-18T04:45:34;4.7;;;3.4;;
22308;SDS011;11322;50.858;-1.778;2022-12-18T04:50:34;7.1;;;3.95;;
22308;SDS011;11322;50.858;-1.778;2022-12-18T04:55:34;3.25;;;3.0;;
22308;SDS011;11322;50.858;-1.778;2022-12-18T05:00:34;6.0;;;4.4;;
22308;SDS011;11322;50.858;-1.778;2022-12-18T05:05:34;7.25;;;3.55;;
22308;SDS011;11322;50.858;-1.778;2022-12-18T05:10:34;5.05;;;4.35;;
22308;SDS011;11322;50.858;-1.778;2022-12-18T05:15:34;6.7;;;5.2;;
22308;SDS011;11322;50.858;-1.778;2022-12-18T05:20:34;2.5;;;2.35;;
22308;SDS011;11322;50.858;-1.778;2022-12-18T05:25:34;4.35;;;3.95;;
22308;SDS011;11322;50.858;-1.778;2022-12-18T05:30:34;15.85;;;2.35;;
22308;SDS011;11322;50.858;-1.778;2022-12-18T05:35:34;3.8;;;2.4;;
22308;SDS011;11322;50.858;-1.778;2022-12-18T05:40:34;5.3;;;3.7;;
22308;SDS011;11322;50.858;-1.778;2022-12-18T05:45:36;3.7;;;3.35;;
22308;SDS011;11322;50.858;-1.778;2022-12-18T05:50:34;3.5;;;2.35;;
22308;SDS011;11322;50.858;-1.778;2022-12-18T05:55:34;6.25;;;3.1;;
22308;SDS011;11322;50.858;-1.778;2022-12-18T06:00:34;1.8;;;1.7;;
22308;SDS011;11322;50.858;-1.778;2022-12-18T06:05:34;2.05;;;1.9;;
22308;SDS011;11322;50.858;-1.778;2022-12-18T06:10:34;2.35;;;1.65;;
22308;SDS011;11322;50.858;-1.778;2022-12-18T06:15:35;1.3;;;0.5;;
22308;SDS011;11322;50.858;-1.778;2022-12-18T06:20:34;6.85;;;2.85;;
22308;SDS011;11322;50.858;-1.778;2022-12-18T06:25:36;2.0;;;1.8;;
22308;SDS011;11322;50.858;-1.778;2022-12-18T06:30:34;2.95;;;2.75;;
22308;SDS011;11322;50.858;-1.778;2022-12-18T06:35:34;1.1;;;1.05;;
22308;SDS011;11322;50.858;-1.778;2022-12-18T06:40:34;3.85;;;3.15;;
22308;SDS011;11322;50.858;-1.778;2022-12-18T06:45:34;5.45;;;2.2;;
22308;SDS011;11322;50.858;-1.778;2022-12-18T06:50:34;2.6;;;1.95;;
22308;SDS011;11322;50.858;-1.778;2022-12-18T06:55:34;3.1;;;2.85;;
22308;SDS011;11322;50.858;-1.778;2022-12-18T07:00:34;1.45;;;1.4;;
22308;SDS011;11322;50.858;-1.778;2022-12-18T07:05:34;2.3;;;1.4;;
22308;SDS011;11322;50.858;-1.778;2022-12-18T07:10:39;1.35;;;0.95;;
22308;SDS011;11322;50.858;-1.778;2022-12-18T07:15:34;4.6;;;3.0;;
22308;SDS011;11322;50.858;-1.778;2022-12-18T07:20:34;2.7;;;2.15;;
22308;SDS011;11322;50.858;-1.778;2022-12-18T07:25:34;5.9;;;4.55;;
22308;SDS011;11322;50.858;-1.778;2022-12-18T07:30:36;2.8;;;2.1;;
22308;SDS011;11322;50.858;-1.778;2022-12-18T07:35:34;2.2;;;2.1;;
22308;SDS011;11322;50.858;-1.778;2022-12-18T07:40:34;6.45;;;2.15;;
22308;SDS011;11322;50.858;-1.778;2022-12-18T07:45:37;4.75;;;2.95;;
22308;SDS011;11322;50.858;-1.778;2022-12-18T07:50:35;2.8;;;1.8;;
22308;SDS011;11322;50.858;-1.778;2022-12-18T07:55:34;5.2;;;3.8;;
22308;SDS011;11322;50.858;-1.778;2022-12-18T08:00:35;2.25;;;1.75;;
22308;SDS011;11322;50.858;-1.778;2022-12-18T08:05:34;3.0;;;2.5;;
22308;SDS011;11322;50.858;-1.778;2022-12-18T08:10:34;3.2;;;2.95;;
22308;SDS011;11322;50.858;-1.778;2022-12-18T08:15:34;9.0;;;5.2;;
22308;SDS011;11322;50.858;-1.778;2022-12-18T08:20:34;3.85;;;2.6;;
22308;SDS011;11322;50.858;-1.778;2022-12-18T08:25:34;10.2;;;3.65;;
22308;SDS011;11322;50.858;-1.778;2022-12-18T08:30:34;4.4;;;4.1;;
22308;SDS011;11322;50.858;-1.778;2022-12-18T08:35:35;5.0;;;4.55;;
22308;SDS011;11322;50.858;-1.778;2022-12-18T08:40:34;5.4;;;3.75;;
22308;SDS011;11322;50.858;-1.778;2022-12-18T08:45:34;5.2;;;4.3;;
22308;SDS011;11322;50.858;-1.778;2022-12-18T08:50:34;6.8;;;4.55;;
22308;SDS011;11322;50.858;-1.778;2022-12-18T08:55:34;7.9;;;4.75;;
22308;SDS011;11322;50.858;-1.778;2022-12-18T09:00:34;2.5;;;2.4;;
22308;SDS011;11322;50.858;-1.778;2022-12-18T09:05:34;6.75;;;4.65;;
22308;SDS011;11322;50.858;-1.778;2022-12-18T09:10:34;4.3;;;3.85;;
22308;SDS011;11322;50.858;-1.778;2022-12-18T09:15:34;12.15;;;5.85;;
22308;SDS011;11322;50.858;-1.778;2022-12-18T09:20:34;5.15;;;3.6;;
22308;SDS011;11322;50.858;-1.778;2022-12-18T09:25:34;3.6;;;3.05;;
22308;SDS011;11322;50.858;-1.778;2022-12-18T09:30:34;1.95;;;1.85;;
22308;SDS011;11322;50.858;-1.778;2022-12-18T09:35:36;7.45;;;4.35;;
22308;SDS011;11322;50.858;-1.778;2022-12-18T09:40:36;4.65;;;3.3;;
22308;SDS011;11322;50.858;-1.778;2022-12-18T09:45:37;4.35;;;2.9;;
22308;SDS011;11322;50.858;-1.778;2022-12-18T09:50:35;3.85;;;3.35;;
22308;SDS011;11322;50.858;-1.778;2022-12-18T09:55:34;6.55;;;4.2;;
22308;SDS011;11322;50.858;-1.778;2022-12-18T10:00:34;8.45;;;4.25;;
22308;SDS011;11322;50.858;-1.778;2022-12-18T10:05:35;8.9;;;6.15;;
22308;SDS011;11322;50.858;-1.778;2022-12-18T10:10:36;1.95;;;1.85;;
22308;SDS011;11322;50.858;-1.778;2022-12-18T10:15:35;3.55;;;2.7;;
22308;SDS011;11322;50.858;-1.778;2022-12-18T10:20:34;6.6;;;3.75;;
22308;SDS011;11322;50.858;-1.778;2022-12-18T10:25:34;8.4;;;4.75;;
22308;SDS011;11322;50.858;-1.778;2022-12-18T10:30:34;4.7;;;3.65;;
22308;SDS011;11322;50.858;-1.778;2022-12-18T10:35:34;8.6;;;5.0;;
22308;SDS011;11322;50.858;-1.778;2022-12-18T10:40:47;7.6;;;4.5;;
22308;SDS011;11322;50.858;-1.778;2022-12-18T10:40:49;7.6;;;4.5;;
22308;SDS011;11322;50.858;-1.778;2022-12-18T10:45:34;9.2;;;5.5;;
22308;SDS011;11322;50.858;-1.778;2022-12-18T10:50:34;3.0;;;2.8;;
22308;SDS011;11322;50.858;-1.778;2022-12-18T10:55:34;5.55;;;3.9;;
22308;SDS011;11322;50.858;-1.778;2022-12-18T11:00:34;6.25;;;3.45;;
22308;SDS011;11322;50.858;-1.778;2022-12-18T11:05:34;3.9;;;3.3;;
22308;SDS011;11322;50.858;-1.778;2022-12-18T11:10:35;10.1;;;3.8;;
22308;SDS011;11322;50.858;-1.778;2022-12-18T11:15:34;2.6;;;2.3;;
22308;SDS011;11322;50.858;-1.778;2022-12-18T11:20:34;6.95;;;3.9;;
22308;SDS011;11322;50.858;-1.778;2022-12-18T11:25:34;4.7;;;3.15;;
22308;SDS011;11322;50.858;-1.778;2022-12-18T11:30:34;4.45;;;2.2;;
22308;SDS011;11322;50.858;-1.778;2022-12-18T11:35:39;6.0;;;3.6;;
22308;SDS011;11322;50.858;-1.778;2022-12-18T11:40:35;5.05;;;3.95;;
22308;SDS011;11322;50.858;-1.778;2022-12-18T11:45:34;5.4;;;3.75;;
22308;SDS011;11322;50.858;-1.778;2022-12-18T11:50:39;3.05;;;2.75;;
22308;SDS011;11322;50.858;-1.778;2022-12-18T11:55:36;2.6;;;2.5;;
22308;SDS011;11322;50.858;-1.778;2022-12-18T12:00:34;4.95;;;3.7;;
22308;SDS011;11322;50.858;-1.778;2022-12-18T12:05:38;2.6;;;1.8;;
22308;SDS011;11322;50.858;-1.778;2022-12-18T12:11:51;9.3;;;4.95;;
22308;SDS011;11322;50.858;-1.778;2022-12-18T12:15:38;3.95;;;3.1;;
22308;SDS011;11322;50.858;-1.778;2022-12-18T12:20:34;4.0;;;3.4;;
22308;SDS011;11322;50.858;-1.778;2022-12-18T12:25:33;8.65;;;3.7;;
22308;SDS011;11322;50.858;-1.778;2022-12-18T12:35:37;1.55;;;1.45;;
22308;SDS011;11322;50.858;-1.778;2022-12-18T12:40:34;6.05;;;2.45;;
22308;SDS011;11322;50.858;-1.778;2022-12-18T12:45:36;1.7;;;1.0;;
22308;SDS011;11322;50.858;-1.778;2022-12-18T12:50:34;6.5;;;1.65;;
22308;SDS011;11322;50.858;-1.778;2022-12-18T12:55:34;0.9;;;0.9;;
22308;SDS011;11322;50.858;-1.778;2022-12-18T13:00:37;2.3;;;1.5;;
22308;SDS011;11322;50.858;-1.778;2022-12-18T13:05:34;0.8;;;0.8;;
22308;SDS011;11322;50.858;-1.778;2022-12-18T13:10:34;5.0;;;0.6;;
22308;SDS011;11322;50.858;-1.778;2022-12-18T13:15:36;1.9;;;1.15;;
22308;SDS011;11322;50.858;-1.778;2022-12-18T13:20:34;1.0;;;1.0;;
22308;SDS011;11322;50.858;-1.778;2022-12-18T13:25:34;2.2;;;1.35;;
22308;SDS011;11322;50.858;-1.778;2022-12-18T13:30:43;1.15;;;1.1;;
22308;SDS011;11322;50.858;-1.778;2022-12-18T13:35:37;1.2;;;0.95;;
22308;SDS011;11322;50.858;-1.778;2022-12-18T13:40:55;3.5;;;1.9;;
22308;SDS011;11322;50.858;-1.778;2022-12-18T13:45:35;1.35;;;0.95;;
22308;SDS011;11322;50.858;-1.778;2022-12-18T13:50:34;2.05;;;1.2;;
22308;SDS011;11322;50.858;-1.778;2022-12-18T13:55:34;0.85;;;0.7;;
22308;SDS011;11322;50.858;-1.778;2022-12-18T14:00:34;5.0;;;1.35;;
22308;SDS011;11322;50.858;-1.778;2022-12-18T14:05:34;0.7;;;0.7;;
22308;SDS011;11322;50.858;-1.778;2022-12-18T14:10:34;2.3;;;1.1;;
22308;SDS011;11322;50.858;-1.778;2022-12-18T14:15:34;1.2;;;1.1;;
22308;SDS011;11322;50.858;-1.778;2022-12-18T14:20:34;1.65;;;1.35;;
22308;SDS011;11322;50.858;-1.778;2022-12-18T14:25:34;0.45;;;0.45;;
22308;SDS011;11322;50.858;-1.778;2022-12-18T14:30:35;1.3;;;1.2;;
22308;SDS011;11322;50.858;-1.778;2022-12-18T14:35:34;1.35;;;1.15;;
22308;SDS011;11322;50.858;-1.778;2022-12-18T14:40:34;0.2;;;0.2;;
22308;SDS011;11322;50.858;-1.778;2022-12-18T14:45:35;4.15;;;1.4;;
22308;SDS011;11322;50.858;-1.778;2022-12-18T14:50:34;2.55;;;0.95;;
22308;SDS011;11322;50.858;-1.778;2022-12-18T14:55:34;0.9;;;0.9;;
22308;SDS011;11322;50.858;-1.778;2022-12-18T15:00:34;0.4;;;0.4;;
22308;SDS011;11322;50.858;-1.778;2022-12-18T15:05:34;0.65;;;0.45;;
22308;SDS011;11322;50.858;-1.778;2022-12-18T15:10:34;1.1;;;1.1;;
22308;SDS011;11322;50.858;-1.778;2022-12-18T15:15:47;1.3;;;1.25;;
22308;SDS011;11322;50.858;-1.778;2022-12-18T15:20:38;1.3;;;0.85;;
22308;SDS011;11322;50.858;-1.778;2022-12-18T15:25:34;0.5;;;0.5;;
22308;SDS011;11322;50.858;-1.778;2022-12-18T15:30:34;1.45;;;1.15;;
22308;SDS011;11322;50.858;-1.778;2022-12-18T15:35:34;0.55;;;0.55;;
22308;SDS011;11322;50.858;-1.778;2022-12-18T15:40:34;0.45;;;0.45;;
22308;SDS011;11322;50.858;-1.778;2022-12-18T15:45:34;2.25;;;2.05;;
22308;SDS011;11322;50.858;-1.778;2022-12-18T15:50:39;3.4;;;1.6;;
22308;SDS011;11322;50.858;-1.778;2022-12-18T15:55:34;5.5;;;1.7;;
22308;SDS011;11322;50.858;-1.778;2022-12-18T16:00:34;1.45;;;1.35;;
22308;SDS011;11322;50.858;-1.778;2022-12-18T16:05:34;4.05;;;0.7;;
22308;SDS011;11322;50.858;-1.778;2022-12-18T16:10:34;3.45;;;1.5;;
22308;SDS011;11322;50.858;-1.778;2022-12-18T16:15:34;3.55;;;0.7;;
22308;SDS011;11322;50.858;-1.778;2022-12-18T16:20:34;2.5;;;1.1;;
22308;SDS011;11322;50.858;-1.778;2022-12-18T16:25:34;0.2;;;0.2;;
22308;SDS011;11322;50.858;-1.778;2022-12-18T16:30:34;4.7;;;2.2;;
22308;SDS011;11322;50.858;-1.778;2022-12-18T16:35:34;2.0;;;1.0;;
22308;SDS011;11322;50.858;-1.778;2022-12-18T16:40:34;1.1;;;1.0;;
22308;SDS011;11322;50.858;-1.778;2022-12-18T16:45:34;1.45;;;1.25;;
22308;SDS011;11322;50.858;-1.778;2022-12-18T16:50:34;1.05;;;0.5;;
22308;SDS011;11322;50.858;-1.778;2022-12-18T16:55:34;2.75;;;1.4;;
22308;SDS011;11322;50.858;-1.778;2022-12-18T17:00:34;11.3;;;2.2;;
22308;SDS011;11322;50.858;-1.778;2022-12-18T17:05:34;2.05;;;1.3;;
22308;SDS011;11322;50.858;-1.778;2022-12-18T17:10:34;4.35;;;2.6;;
22308;SDS011;11322;50.858;-1.778;2022-12-18T17:15:34;5.75;;;2.8;;
22308;SDS011;11322;50.858;-1.778;2022-12-18T17:20:34;3.9;;;1.55;;
22308;SDS011;11322;50.858;-1.778;2022-12-18T17:25:34;3.85;;;1.9;;
22308;SDS011;11322;50.858;-1.778;2022-12-18T17:30:34;2.25;;;1.85;;
22308;SDS011;11322;50.858;-1.778;2022-12-18T17:35:34;0.6;;;0.6;;
22308;SDS011;11322;50.858;-1.778;2022-12-18T17:40:34;3.8;;;2.45;;
22308;SDS011;11322;50.858;-1.778;2022-12-18T17:45:34;1.1;;;1.1;;
22308;SDS011;11322;50.858;-1.778;2022-12-18T17:50:34;7.7;;;1.6;;
22308;SDS011;11322;50.858;-1.778;2022-12-18T17:55:34;0.3;;;0.3;;
22308;SDS011;11322;50.858;-1.778;2022-12-18T18:00:34;6.2;;;2.15;;
22308;SDS011;11322;50.858;-1.778;2022-12-18T18:05:34;2.0;;;1.0;;
22308;SDS011;11322;50.858;-1.778;2022-12-18T18:10:34;1.2;;;1.2;;
22308;SDS011;11322;50.858;-1.778;2022-12-18T18:15:34;7.2;;;2.1;;
22308;SDS011;11322;50.858;-1.778;2022-12-18T18:20:38;1.65;;;1.5;;
22308;SDS011;11322;50.858;-1.778;2022-12-18T18:25:34;3.6;;;1.55;;
22308;SDS011;11322;50.858;-1.778;2022-12-18T18:30:35;6.45;;;1.8;;
22308;SDS011;11322;50.858;-1.778;2022-12-18T18:35:34;2.1;;;1.4;;
22308;SDS011;11322;50.858;-1.778;2022-12-18T18:40:34;1.65;;;1.45;;
22308;SDS011;11322;50.858;-1.778;2022-12-18T18:45:34;2.4;;;1.15;;
22308;SDS011;11322;50.858;-1.778;2022-12-18T18:50:34;2.4;;;1.95;;
22308;SDS011;11322;50.858;-1.778;2022-12-18T18:55:34;2.3;;;1.35;;
22308;SDS011;11322;50.858;-1.778;2022-12-18T19:00:34;3.3;;;1.15;;
22308;SDS011;11322;50.858;-1.778;2022-12-18T19:05:34;2.0;;;1.5;;
22308;SDS011;11322;50.858;-1.778;2022-12-18T19:10:36;1.5;;;1.45;;
22308;SDS011;11322;50.858;-1.778;2022-12-18T19:15:34;3.7;;;1.8;;
22308;SDS011;11322;50.858;-1.778;2022-12-18T19:20:34;1.55;;;1.45;;
22308;SDS011;11322;50.858;-1.778;2022-12-18T19:25:35;0.65;;;0.6;;
22308;SDS011;11322;50.858;-1.778;2022-12-18T19:30:36;3.05;;;2.0;;
22308;SDS011;11322;50.858;-1.778;2022-12-18T19:35:34;2.35;;;2.2;;
22308;SDS011;11322;50.858;-1.778;2022-12-18T19:40:34;1.85;;;1.7;;
22308;SDS011;11322;50.858;-1.778;2022-12-18T19:45:34;1.7;;;1.55;;
22308;SDS011;11322;50.858;-1.778;2022-12-18T19:50:38;1.4;;;1.3;;
22308;SDS011;11322;50.858;-1.778;2022-12-18T19:55:38;3.9;;;1.8;;
22308;SDS011;11322;50.858;-1.778;2022-12-18T20:00:34;14.95;;;2.45;;
22308;SDS011;11322;50.858;-1.778;2022-12-18T20:05:34;3.65;;;1.55;;
22308;SDS011;11322;50.858;-1.778;2022-12-18T20:10:34;4.15;;;2.1;;
22308;SDS011;11322;50.858;-1.778;2022-12-18T20:15:34;5.05;;;1.9;;
22308;SDS011;11322;50.858;-1.778;2022-12-18T20:20:34;1.15;;;1.0;;
22308;SDS011;11322;50.858;-1.778;2022-12-18T20:25:34;3.2;;;2.25;;
22308;SDS011;11322;50.858;-1.778;2022-12-18T20:30:34;1.95;;;1.65;;
22308;SDS011;11322;50.858;-1.778;2022-12-18T20:35:34;5.7;;;1.95;;
22308;SDS011;11322;50.858;-1.778;2022-12-18T20:40:34;4.4;;;1.85;;
22308;SDS011;11322;50.858;-1.778;2022-12-18T20:45:34;2.7;;;1.7;;
22308;SDS011;11322;50.858;-1.778;2022-12-18T20:50:34;1.8;;;1.2;;
22308;SDS011;11322;50.858;-1.778;2022-12-18T20:55:34;3.0;;;1.8;;
22308;SDS011;11322;50.858;-1.778;2022-12-18T21:00:34;1.45;;;1.4;;
22308;SDS011;11322;50.858;-1.778;2022-12-18T21:05:34;3.3;;;1.55;;
22308;SDS011;11322;50.858;-1.778;2022-12-18T21:10:34;4.35;;;3.0;;
22308;SDS011;11322;50.858;-1.778;2022-12-18T21:15:34;0.95;;;0.9;;
22308;SDS011;11322;50.858;-1.778;2022-12-18T21:20:34;3.2;;;1.5;;
22308;SDS011;11322;50.858;-1.778;2022-12-18T21:25:34;7.8;;;2.1;;
22308;SDS011;11322;50.858;-1.778;2022-12-18T21:30:34;6.9;;;2.85;;
22308;SDS011;11322;50.858;-1.778;2022-12-18T21:35:34;4.3;;;1.75;;
22308;SDS011;11322;50.858;-1.778;2022-12-18T21:40:34;5.6;;;1.55;;
22308;SDS011;11322;50.858;-1.778;2022-12-18T21:45:34;1.65;;;1.45;;
22308;SDS011;11322;50.858;-1.778;2022-12-18T21:50:34;3.5;;;1.2;;
22308;SDS011;11322;50.858;-1.778;2022-12-18T21:55:34;9.1;;;1.75;;
22308;SDS011;11322;50.858;-1.778;2022-12-18T22:00:34;9.65;;;0.75;;
22308;SDS011;11322;50.858;-1.778;2022-12-18T22:05:34;4.85;;;2.2;;
22308;SDS011;11322;50.858;-1.778;2022-12-18T22:10:34;2.45;;;1.55;;
22308;SDS011;11322;50.858;-1.778;2022-12-18T22:15:34;8.2;;;2.7;;
22308;SDS011;11322;50.858;-1.778;2022-12-18T22:20:34;3.8;;;1.15;;
22308;SDS011;11322;50.858;-1.778;2022-12-18T22:25:34;8.45;;;2.35;;
22308;SDS011;11322;50.858;-1.778;2022-12-18T22:30:34;4.8;;;2.1;;
22308;SDS011;11322;50.858;-1.778;2022-12-18T22:35:34;2.7;;;1.1;;
22308;SDS011;11322;50.858;-1.778;2022-12-18T22:40:34;1.7;;;1.05;;
22308;SDS011;11322;50.858;-1.778;2022-12-18T22:45:34;1.5;;;1.05;;
22308;SDS011;11322;50.858;-1.778;2022-12-18T22:50:34;2.0;;;0.55;;
22308;SDS011;11322;50.858;-1.778;2022-12-18T22:55:34;8.65;;;1.0;;
22308;SDS011;11322;50.858;-1.778;2022-12-18T23:00:34;1.45;;;1.15;;
22308;SDS011;11322;50.858;-1.778;2022-12-18T23:05:34;5.9;;;1.45;;
22308;SDS011;11322;50.858;-1.778;2022-12-18T23:10:35;1.15;;;0.8;;
22308;SDS011;11322;50.858;-1.778;2022-12-18T23:15:34;0.75;;;0.75;;
22308;SDS011;11322;50.858;-1.778;2022-12-18T23:20:34;2.5;;;1.5;;
22308;SDS011;11322;50.858;-1.778;2022-12-18T23:25:34;1.85;;;0.6;;
22308;SDS011;11322;50.858;-1.778;2022-12-18T23:30:34;2.85;;;1.8;;
22308;SDS011;11322;50.858;-1.778;2022-12-18T23:35:34;1.75;;;1.3;;
22308;SDS011;11322;50.858;-1.778;2022-12-18T23:40:34;8.05;;;1.8;;
22308;SDS011;11322;50.858;-1.778;2022-12-18T23:45:35;10.7;;;2.4;;
22308;SDS011;11322;50.858;-1.778;2022-12-18T23:50:34;3.3;;;1.7;;
22308;SDS011;11322;50.858;-1.778;2022-12-18T23:55:36;4.55;;;1.0;;
